Time;durP1;ratioP1;P1;durP2;ratioP2;P2;SDS_P1;SDS_P2;PMS_P1;PMS_P2;Temp;Humidity;BMP_temperature;BMP_pressure;BME280_temperature;BME280_humidity;BME280_pressure;Samples;Min_cycle;Max_cycle;Signal;HPM_P1;HPM_P2
2023/09/09 00:00:31;;;;;;;19.10;15.90;;;18.40;1.00;;;;;;5035125;28;20261;-52
2023/09/09 00:02:57;;;;;;;25.93;16.00;;;18.40;1.00;;;;;;5034456;28;20194;-51
2023/09/09 00:05:22;;;;;;;21.30;15.47;;;18.40;1.00;;;;;;5035332;28;20206;-50
2023/09/09 00:07:48;;;;;;;20.83;14.47;;;18.40;99.90;;;;;;5034968;28;20214;-51
2023/09/09 00:10:13;;;;;;;18.70;14.50;;;18.40;99.90;;;;;;5035165;28;20258;-51
2023/09/09 00:12:39;;;;;;;19.30;14.70;;;18.40;1.00;;;;;;5034926;28;20519;-51
2023/09/09 00:15:05;;;;;;;17.73;15.50;;;18.40;99.90;;;;;;5035578;28;20188;-49
2023/09/09 00:17:31;;;;;;;17.23;15.30;;;18.30;99.90;;;;;;5035283;28;20186;-51
2023/09/09 00:19:57;;;;;;;18.80;15.40;;;18.20;99.90;;;;;;5035806;28;20437;-50
2023/09/09 00:22:22;;;;;;;20.67;16.43;;;18.20;1.00;;;;;;5034846;28;20273;-53
2023/09/09 00:24:48;;;;;;;18.60;16.20;;;18.20;1.00;;;;;;5036050;28;20441;-51
2023/09/09 00:27:13;;;;;;;19.53;16.50;;;18.10;1.00;;;;;;5034017;28;20213;-51
2023/09/09 00:29:39;;;;;;;20.87;15.43;;;18.00;1.00;;;;;;5035411;28;20187;-52
2023/09/09 00:32:05;;;;;;;17.00;14.83;;;18.10;1.00;;;;;;5032904;28;20197;-52
2023/09/09 00:34:33;;;;;;;17.67;15.23;;;18.10;1.00;;;;;;5032495;28;20186;-50
2023/09/09 00:36:58;;;;;;;20.27;15.53;;;18.20;1.00;;;;;;5033890;28;20278;-51
2023/09/09 00:39:24;;;;;;;16.23;14.10;;;18.20;1.00;;;;;;5034807;28;20819;-51
2023/09/09 00:41:49;;;;;;;17.23;14.17;;;18.10;1.00;;;;;;5033591;28;20247;-50
2023/09/09 00:44:15;;;;;;;17.20;13.97;;;18.10;1.00;;;;;;5034206;28;20179;-51
2023/09/09 00:46:41;;;;;;;15.40;13.80;;;18.10;1.00;;;;;;5033028;28;20196;-51
2023/09/09 00:49:07;;;;;;;19.43;15.33;;;18.00;1.00;;;;;;5032573;28;20226;-52
2023/09/09 00:51:37;;;;;;;22.07;14.97;;;18.00;1.00;;;;;;5033399;28;20461;-51
2023/09/09 00:54:03;;;;;;;21.90;14.70;;;18.00;1.00;;;;;;5033737;28;20207;-51
2023/09/09 00:56:29;;;;;;;16.13;14.00;;;18.00;1.00;;;;;;5033946;28;20434;-51
2023/09/09 00:58:55;;;;;;;14.63;13.03;;;17.90;1.00;;;;;;5032161;28;20445;-51
2023/09/09 01:01:20;;;;;;;17.00;14.00;;;17.90;1.00;;;;;;5033056;28;20609;-54
2023/09/09 01:03:53;;;;;;;16.73;14.30;;;17.80;1.00;;;;;;5034069;28;20180;-52
2023/09/09 01:06:20;;;;;;;20.13;15.20;;;17.80;1.00;;;;;;5026258;28;20609;-51
2023/09/09 01:08:46;;;;;;;16.73;14.30;;;17.90;70.60;;;;;;5037038;28;20504;-51
2023/09/09 01:11:12;;;;;;;16.17;14.30;;;18.00;1.00;;;;;;5032711;28;20484;-51
2023/09/09 01:13:37;;;;;;;16.97;14.50;;;18.00;1.00;;;;;;5034289;28;20191;-52
2023/09/09 01:16:04;;;;;;;16.83;12.80;;;18.10;33.10;;;;;;5030973;28;20191;-51
2023/09/09 01:18:31;;;;;;;16.10;13.57;;;18.00;1.00;;;;;;5031904;28;20187;-51
2023/09/09 01:21:10;;;;;;;18.30;14.17;;;18.00;1.00;;;;;;5034190;28;20489;-51
2023/09/09 01:23:36;;;;;;;16.77;13.13;;;18.00;1.00;;;;;;5028460;28;21023;-51
2023/09/09 01:26:02;;;;;;;16.43;13.50;;;17.90;1.00;;;;;;5029735;28;20605;-51
2023/09/09 01:28:28;;;;;;;18.30;12.87;;;17.80;1.00;;;;;;5036784;28;20817;-51
2023/09/09 01:30:54;;;;;;;15.17;13.03;;;17.60;99.90;;;;;;5033884;28;20431;-51
2023/09/09 01:33:19;;;;;;;16.63;13.87;;;17.50;1.00;;;;;;5033415;28;20180;-50
2023/09/09 01:35:49;;;;;;;16.10;13.67;;;17.20;1.00;;;;;;5032518;28;20205;-52
2023/09/09 01:38:14;;;;;;;15.77;13.17;;;17.10;63.70;;;;;;5023427;28;20261;-51
2023/09/09 01:40:40;;;;;;;16.20;13.27;;;16.90;99.90;;;;;;5025830;28;20941;-52
2023/09/09 01:43:05;;;;;;;14.93;13.33;;;16.80;1.00;;;;;;5026579;28;20208;-52
2023/09/09 01:45:31;;;;;;;18.90;13.20;;;16.70;59.60;;;;;;5023990;28;20555;-51
2023/09/09 01:47:58;;;;;;;14.77;13.20;;;16.70;99.90;;;;;;5026263;28;20720;-51
2023/09/09 01:50:23;;;;;;;14.63;13.03;;;16.60;99.90;;;;;;5024313;28;20282;-51
2023/09/09 01:52:49;;;;;;;14.93;13.20;;;16.50;1.00;;;;;;5026924;28;20523;-50
2023/09/09 01:55:15;;;;;;;16.17;14.13;;;16.40;47.40;;;;;;5026946;28;20186;-52
2023/09/09 01:57:40;;;;;;;16.73;13.80;;;16.40;99.90;;;;;;5037889;28;20531;-52
2023/09/09 02:00:07;;;;;;;14.33;12.90;;;16.40;1.00;;;;;;5033570;28;20190;-51
2023/09/09 02:02:33;;;;;;;16.67;14.17;;;16.30;1.00;;;;;;5037457;28;20192;-50
2023/09/09 02:04:58;;;;;;;15.70;14.00;;;16.30;3.40;;;;;;5032204;28;20447;-52
2023/09/09 02:07:24;;;;;;;16.77;13.83;;;16.30;99.90;;;;;;5032140;28;20595;-52
2023/09/09 02:09:49;;;;;;;17.00;13.10;;;16.20;99.90;;;;;;5033108;28;20190;-51
2023/09/09 02:12:15;;;;;;;18.47;14.70;;;16.20;99.90;;;;;;5033103;28;20189;-53
2023/09/09 02:14:41;;;;;;;17.87;13.77;;;16.10;99.90;;;;;;5031082;28;20189;-52
2023/09/09 02:17:07;;;;;;;17.07;13.83;;;16.10;99.90;;;;;;5032714;28;20213;-52
2023/09/09 02:19:32;;;;;;;20.23;14.10;;;16.00;1.00;;;;;;5033398;28;20187;-51
2023/09/09 02:21:58;;;;;;;16.97;14.90;;;16.00;99.90;;;;;;5033461;28;20565;-53
2023/09/09 02:24:24;;;;;;;19.47;15.17;;;15.90;99.90;;;;;;5033453;28;20178;-53
2023/09/09 02:26:50;;;;;;;18.80;14.33;;;16.00;99.90;;;;;;5031683;28;20546;-51
2023/09/09 02:29:15;;;;;;;22.57;14.53;;;16.00;1.00;;;;;;5034924;28;20217;-50
2023/09/09 02:31:41;;;;;;;15.23;13.73;;;16.00;99.90;;;;;;5039683;28;20563;-51
2023/09/09 02:34:06;;;;;;;19.27;14.47;;;15.90;1.00;;;;;;5040083;28;20182;-51
2023/09/09 02:36:32;;;;;;;16.27;14.00;;;15.90;99.90;;;;;;5039008;28;20193;-52
2023/09/09 02:38:58;;;;;;;18.77;14.60;;;15.90;1.00;;;;;;5045509;28;20192;-52
2023/09/09 02:41:23;;;;;;;18.20;15.27;;;15.80;1.00;;;;;;5039787;28;20204;-52
2023/09/09 02:43:49;;;;;;;22.50;15.70;;;15.80;99.90;;;;;;5040084;28;20717;-51
2023/09/09 02:46:15;;;;;;;22.97;14.90;;;15.80;99.90;;;;;;5038589;28;20682;-51
2023/09/09 02:48:40;;;;;;;18.23;14.50;;;15.80;1.00;;;;;;5039353;28;20217;-52
2023/09/09 02:51:06;;;;;;;17.77;15.50;;;15.80;99.90;;;;;;5038796;28;20188;-52
2023/09/09 02:53:31;;;;;;;19.63;15.10;;;15.80;94.70;;;;;;5039191;28;20188;-52
2023/09/09 02:55:57;;;;;;;20.30;16.77;;;15.80;99.90;;;;;;5038255;28;20191;-50
2023/09/09 02:58:22;;;;;;;19.40;15.10;;;15.80;87.00;;;;;;5038828;28;20223;-53
2023/09/09 03:00:48;;;;;;;18.57;15.20;;;15.80;99.90;;;;;;5038464;28;20195;-52
2023/09/09 03:03:15;;;;;;;18.50;14.87;;;15.80;99.90;;;;;;5038429;28;20217;-51
2023/09/09 03:05:41;;;;;;;18.40;14.83;;;15.80;1.00;;;;;;5037565;28;20201;-51
2023/09/09 03:08:06;;;;;;;22.13;15.70;;;15.70;86.70;;;;;;5038370;28;20810;-52
2023/09/09 03:10:32;;;;;;;18.57;15.47;;;15.70;1.00;;;;;;5039216;28;20187;-52
2023/09/09 03:12:58;;;;;;;19.93;16.10;;;15.70;99.90;;;;;;5039831;28;20275;-52
2023/09/09 03:15:24;;;;;;;23.03;15.03;;;15.70;99.90;;;;;;5038632;28;20324;-51
2023/09/09 03:17:50;;;;;;;19.70;16.17;;;15.70;1.00;;;;;;5038803;28;20228;-51
2023/09/09 03:20:16;;;;;;;20.80;16.13;;;15.60;1.00;;;;;;5039431;28;20191;-52
2023/09/09 03:22:42;;;;;;;18.43;15.20;;;15.60;1.00;;;;;;5038253;28;20747;-51
2023/09/09 03:25:08;;;;;;;23.93;15.77;;;15.60;99.90;;;;;;5038716;28;20518;-53
2023/09/09 03:27:34;;;;;;;23.43;16.73;;;15.60;99.90;;;;;;5038064;28;20353;-52
2023/09/09 03:30:00;;;;;;;21.83;16.20;;;15.60;99.90;;;;;;5039069;28;20941;-51
2023/09/09 03:32:26;;;;;;;19.30;16.27;;;15.60;99.90;;;;;;5038069;28;20829;-51
2023/09/09 03:34:52;;;;;;;20.90;16.17;;;15.50;99.90;;;;;;5038748;28;20509;-52
2023/09/09 03:37:18;;;;;;;20.40;16.47;;;15.50;99.90;;;;;;5041013;28;20310;-51
2023/09/09 03:39:43;;;;;;;20.70;16.47;;;15.50;99.90;;;;;;5043540;28;20510;-52
2023/09/09 03:42:09;;;;;;;20.70;15.60;;;15.50;99.90;;;;;;5035060;28;20271;-51
2023/09/09 03:44:35;;;;;;;22.00;15.60;;;15.50;72.30;;;;;;5035843;28;20193;-50
2023/09/09 03:47:00;;;;;;;19.70;15.97;;;15.50;1.00;;;;;;5034334;28;20185;-52
2023/09/09 03:49:26;;;;;;;19.90;16.23;;;15.40;1.00;;;;;;5034689;28;20186;-51
2023/09/09 03:51:51;;;;;;;23.03;17.23;;;15.40;56.50;;;;;;5035678;28;20184;-51
2023/09/09 03:54:17;;;;;;;22.60;17.67;;;15.40;1.00;;;;;;5034545;28;20189;-51
2023/09/09 03:56:43;;;;;;;23.07;16.80;;;15.30;99.90;;;;;;5034410;28;20193;-51
2023/09/09 03:59:08;;;;;;;18.33;16.33;;;15.40;99.90;;;;;;5034417;28;20667;-52
2023/09/09 04:01:35;;;;;;;19.23;16.37;;;15.30;99.90;;;;;;5038835;28;20242;-51
2023/09/09 04:04:01;;;;;;;19.17;15.73;;;15.30;99.90;;;;;;5036057;28;20187;-51
2023/09/09 04:06:27;;;;;;;25.33;17.00;;;15.30;99.90;;;;;;5026313;28;20545;-51
2023/09/09 04:08:56;;;;;;;20.90;17.10;;;15.30;99.90;;;;;;5035699;28;20278;-51
2023/09/09 04:11:22;;;;;;;17.07;15.23;;;15.20;1.00;;;;;;5035367;28;20450;-51
2023/09/09 04:13:47;;;;;;;17.30;15.27;;;15.20;1.00;;;;;;5035117;28;20509;-51
2023/09/09 04:16:13;;;;;;;21.70;16.80;;;15.20;99.90;;;;;;5033987;28;20533;-52
2023/09/09 04:18:39;;;;;;;19.80;16.10;;;15.20;1.00;;;;;;5035019;28;20611;-51
2023/09/09 04:21:04;;;;;;;19.90;16.70;;;15.20;1.00;;;;;;5034478;28;20570;-51
2023/09/09 04:23:30;;;;;;;22.17;17.20;;;15.20;1.00;;;;;;5036533;28;20230;-52
2023/09/09 04:25:55;;;;;;;17.67;15.73;;;15.20;2.20;;;;;;5035452;28;20179;-51
2023/09/09 04:28:21;;;;;;;20.40;16.20;;;15.30;12.00;;;;;;5033795;28;20260;-52
2023/09/09 04:30:46;;;;;;;22.47;17.10;;;15.30;1.00;;;;;;5035180;28;20557;-51
2023/09/09 04:33:12;;;;;;;21.33;16.40;;;15.30;1.00;;;;;;5031888;28;20242;-50
2023/09/09 04:35:39;;;;;;;21.97;17.80;;;15.30;1.00;;;;;;5038439;28;20195;-51
2023/09/09 04:38:06;;;;;;;20.33;16.60;;;15.30;1.00;;;;;;5041785;28;20197;-52
2023/09/09 04:40:32;;;;;;;17.47;15.50;;;15.30;1.00;;;;;;5033755;28;20427;-51
2023/09/09 04:42:58;;;;;;;22.17;17.00;;;15.30;1.00;;;;;;5028202;28;20432;-51
2023/09/09 04:45:23;;;;;;;18.40;16.13;;;15.30;1.00;;;;;;5034905;28;20838;-51
2023/09/09 04:47:51;;;;;;;21.20;17.10;;;15.40;1.00;;;;;;5034766;28;20224;-50
2023/09/09 04:50:17;;;;;;;18.70;16.20;;;15.30;1.00;;;;;;5033310;28;20286;-51
2023/09/09 04:52:43;;;;;;;19.73;16.33;;;15.30;1.00;;;;;;5033487;28;20434;-51
2023/09/09 04:55:08;;;;;;;20.77;16.07;;;15.30;99.90;;;;;;5030122;28;20453;-53
2023/09/09 04:57:34;;;;;;;21.10;16.87;;;15.30;99.90;;;;;;5033804;28;20189;-51
2023/09/09 05:00:03;;;;;;;22.90;15.70;;;15.30;99.90;;;;;;5032810;28;20621;-51
2023/09/09 05:02:28;;;;;;;19.17;16.30;;;15.20;99.90;;;;;;5034673;28;20198;-51
2023/09/09 05:04:54;;;;;;;18.83;16.50;;;15.30;99.90;;;;;;5033015;28;20437;-52
2023/09/09 05:07:19;;;;;;;18.23;16.33;;;15.20;99.90;;;;;;5039056;28;20255;-52
2023/09/09 05:09:45;;;;;;;21.00;17.10;;;15.20;99.90;;;;;;5033840;28;20278;-51
2023/09/09 05:12:11;;;;;;;19.17;16.10;;;15.20;99.90;;;;;;5033763;28;20183;-51
2023/09/09 05:14:36;;;;;;;20.80;15.80;;;15.30;99.90;;;;;;5033038;28;20208;-51
2023/09/09 05:17:02;;;;;;;18.23;15.40;;;15.30;97.60;;;;;;5034063;28;20191;-51
2023/09/09 05:19:27;;;;;;;23.10;18.33;;;15.30;25.20;;;;;;5033872;28;20188;-51
2023/09/09 05:21:53;;;;;;;26.70;17.60;;;15.30;99.90;;;;;;5032236;28;20234;-51
2023/09/09 05:24:18;;;;;;;21.07;16.57;;;15.30;99.90;;;;;;5032558;28;20560;-51
2023/09/09 05:26:44;;;;;;;19.83;16.63;;;15.40;1.00;;;;;;5033150;28;20275;-53
2023/09/09 05:29:10;;;;;;;23.47;16.60;;;15.40;99.90;;;;;;5033603;28;20216;-51
2023/09/09 05:31:35;;;;;;;19.37;16.20;;;15.50;99.90;;;;;;5032783;28;20258;-53
2023/09/09 05:34:01;;;;;;;22.00;17.30;;;15.60;99.90;;;;;;5032483;28;20281;-51
2023/09/09 05:36:28;;;;;;;22.00;16.93;;;15.60;18.10;;;;;;5033364;28;20184;-51
2023/09/09 05:38:59;;;;;;;22.10;17.47;;;15.70;1.00;;;;;;5033927;28;20181;-51
2023/09/09 05:41:31;;;;;;;24.60;18.10;;;15.70;99.90;;;;;;5034761;28;20801;-51
2023/09/09 05:43:56;;;;;;;20.73;17.63;;;15.80;1.00;;;;;;5032221;28;20935;-52
2023/09/09 05:46:22;;;;;;;27.00;17.63;;;15.80;99.90;;;;;;5034081;28;20504;-54
2023/09/09 05:48:48;;;;;;;24.97;16.63;;;15.90;99.90;;;;;;5033439;28;20292;-52
2023/09/09 05:51:13;;;;;;;18.10;16.00;;;16.00;99.90;;;;;;5034323;28;20204;-51
2023/09/09 05:53:41;;;;;;;17.43;14.93;;;16.10;1.00;;;;;;5030648;28;20194;-51
2023/09/09 05:56:07;;;;;;;18.47;15.57;;;16.20;99.90;;;;;;5031817;28;20271;-53
2023/09/09 05:58:35;;;;;;;22.00;16.83;;;16.40;99.90;;;;;;5032633;28;20866;-51
2023/09/09 06:01:00;;;;;;;19.70;16.47;;;16.60;99.90;;;;;;5033649;28;20264;-53
2023/09/09 06:03:26;;;;;;;21.37;15.97;;;16.70;1.00;;;;;;5037881;28;20442;-53
2023/09/09 06:05:52;;;;;;;20.37;15.93;;;16.80;17.10;;;;;;5033951;28;20180;-51
2023/09/09 06:08:17;;;;;;;22.17;16.27;;;16.90;1.00;;;;;;5037920;28;20223;-52
2023/09/09 06:10:43;;;;;;;22.57;16.77;;;17.10;91.10;;;;;;5033490;28;20551;-51
2023/09/09 06:13:09;;;;;;;16.47;14.73;;;17.30;1.00;;;;;;5032557;28;20188;-52
2023/09/09 06:15:34;;;;;;;18.30;15.27;;;17.50;99.90;;;;;;5031714;28;20193;-51
2023/09/09 06:18:00;;;;;;;19.90;15.03;;;17.80;1.00;;;;;;5032099;28;20211;-52
2023/09/09 06:20:26;;;;;;;17.77;14.27;;;18.00;1.00;;;;;;5037459;28;20598;-53
2023/09/09 06:22:52;;;;;;;19.60;14.17;;;18.30;99.90;;;;;;5033340;28;20230;-52
2023/09/09 06:25:18;;;;;;;16.30;13.10;;;18.50;99.90;;;;;;5038118;28;20486;-52
2023/09/09 06:27:44;;;;;;;17.50;14.23;;;18.60;99.90;;;;;;5033327;28;20217;-52
2023/09/09 06:30:10;;;;;;;18.37;14.20;;;18.80;86.70;;;;;;5031862;28;20596;-51
2023/09/09 06:32:36;;;;;;;14.73;13.10;;;19.00;47.40;;;;;;5032459;28;20945;-51
2023/09/09 06:35:02;;;;;;;20.40;14.50;;;19.20;1.00;;;;;;5032274;28;20434;-51
2023/09/09 06:37:28;;;;;;;14.70;13.10;;;19.40;1.00;;;;;;5030880;28;20514;-50
2023/09/09 06:39:54;;;;;;;19.53;13.77;;;19.60;1.00;;;;;;5032681;28;20185;-51
2023/09/09 06:42:21;;;;;;;14.50;12.80;;;19.80;1.00;;;;;;5038567;28;20931;-51
2023/09/09 06:44:46;;;;;;;19.43;12.40;;;20.10;1.00;;;;;;5032543;28;20322;-51
2023/09/09 06:47:12;;;;;;;19.60;13.37;;;20.30;1.00;;;;;;5032620;28;20846;-52
2023/09/09 06:49:38;;;;;;;16.87;13.30;;;20.50;1.00;;;;;;5032418;28;20191;-52
2023/09/09 06:52:04;;;;;;;17.17;12.20;;;20.70;1.00;;;;;;5032577;28;20430;-51
2023/09/09 06:54:29;;;;;;;14.80;12.80;;;20.90;1.00;;;;;;5040736;28;20283;-51
2023/09/09 06:56:55;;;;;;;15.50;12.53;;;21.20;1.00;;;;;;5032816;28;20434;-51
2023/09/09 06:59:20;;;;;;;14.50;12.40;;;21.30;1.00;;;;;;5033426;28;20199;-51
2023/09/09 07:01:46;;;;;;;13.47;11.80;;;21.60;1.00;;;;;;5032793;28;20622;-49
2023/09/09 07:04:11;;;;;;;13.77;11.10;;;21.80;1.00;;;;;;5033374;28;20249;-50
2023/09/09 07:06:37;;;;;;;13.10;11.77;;;22.20;1.00;;;;;;5032437;28;20214;-50
2023/09/09 07:09:02;;;;;;;12.20;11.00;;;22.40;1.00;;;;;;5032747;28;20214;-50
2023/09/09 07:11:28;;;;;;;16.50;11.70;;;22.70;1.00;;;;;;5033680;28;20187;-50
2023/09/09 07:13:54;;;;;;;14.47;10.90;;;22.90;1.00;;;;;;5032034;28;20199;-50
2023/09/09 07:16:20;;;;;;;15.60;11.30;;;23.10;1.00;;;;;;5035153;28;21001;-50
2023/09/09 07:18:45;;;;;;;18.80;11.37;;;23.50;1.00;;;;;;5035616;28;20187;-50
2023/09/09 07:21:11;;;;;;;11.67;10.57;;;23.70;1.00;;;;;;5035979;28;20184;-50
2023/09/09 07:23:36;;;;;;;14.23;11.20;;;24.10;1.00;;;;;;5036253;28;20214;-50
2023/09/09 07:26:02;;;;;;;12.57;11.30;;;24.50;1.00;;;;;;5035261;28;20275;-50
2023/09/09 07:28:28;;;;;;;12.63;10.23;;;24.70;1.00;;;;;;5035851;28;20226;-51
2023/09/09 07:30:53;;;;;;;12.70;11.13;;;25.10;1.00;;;;;;5035648;28;20179;-51
2023/09/09 07:33:19;;;;;;;12.93;11.20;;;25.40;1.00;;;;;;5035840;28;20708;-50
2023/09/09 07:35:45;;;;;;;18.60;11.87;;;25.60;1.00;;;;;;5035470;28;20184;-50
2023/09/09 07:38:10;;;;;;;12.10;9.40;;;25.90;1.00;;;;;;5035995;28;20180;-50
2023/09/09 07:40:36;;;;;;;12.60;10.90;;;26.10;1.00;;;;;;5034285;28;20192;-50
2023/09/09 07:43:02;;;;;;;13.80;9.70;;;26.30;1.00;;;;;;5035894;28;20195;-50
2023/09/09 07:45:28;;;;;;;12.93;10.53;;;26.50;1.00;;;;;;5034662;28;20194;-50
2023/09/09 07:47:53;;;;;;;21.63;10.50;;;26.90;1.00;;;;;;5035184;28;20650;-50
2023/09/09 07:50:19;;;;;;;12.23;10.03;;;27.00;1.00;;;;;;5033912;28;20241;-50
2023/09/09 07:52:44;;;;;;;11.47;10.10;;;27.10;1.00;;;;;;5031495;28;20192;-51
2023/09/09 07:55:10;;;;;;;13.50;10.33;;;27.30;1.00;;;;;;5034976;28;20655;-50
2023/09/09 07:57:36;;;;;;;12.70;10.53;;;27.70;1.00;;;;;;5034101;28;20186;-50
2023/09/09 08:00:03;;;;;;;14.03;9.87;;;27.90;1.00;;;;;;5034869;28;20211;-50
2023/09/09 08:02:28;;;;;;;13.30;10.73;;;28.10;1.00;;;;;;5035306;28;20533;-50
2023/09/09 08:04:54;;;;;;;10.43;9.07;;;28.30;1.00;;;;;;5034774;28;20446;-50
2023/09/09 08:07:20;;;;;;;17.50;9.20;;;28.60;1.00;;;;;;5033905;28;20253;-50
2023/09/09 08:09:45;;;;;;;17.17;9.57;;;28.80;1.00;;;;;;5035382;28;20190;-51
2023/09/09 08:12:11;;;;;;;11.50;9.00;;;29.00;99.90;;;;;;5034955;28;20184;-50
2023/09/09 08:14:36;;;;;;;14.07;9.80;;;28.90;99.90;;;;;;5034865;28;20186;-50
2023/09/09 08:17:02;;;;;;;12.17;9.70;;;29.10;99.90;;;;;;5035479;28;20192;-50
2023/09/09 08:19:28;;;;;;;12.23;9.43;;;29.40;99.90;;;;;;5035960;28;20198;-50
2023/09/09 08:21:53;;;;;;;11.30;10.10;;;29.50;99.90;;;;;;5035319;28;20223;-51
2023/09/09 08:24:20;;;;;;;13.80;9.33;;;29.80;99.90;;;;;;5040071;28;20183;-50
2023/09/09 08:26:45;;;;;;;9.20;8.30;;;30.00;99.90;;;;;;5035400;28;20258;-51
2023/09/09 08:29:11;;;;;;;9.90;8.90;;;30.00;99.90;;;;;;5034381;28;20568;-51
2023/09/09 08:31:37;;;;;;;9.60;8.20;;;30.20;99.90;;;;;;5034687;28;20190;-51
2023/09/09 08:34:02;;;;;;;16.70;9.47;;;30.30;99.90;;;;;;5034559;28;20544;-51
2023/09/09 08:36:28;;;;;;;12.40;8.27;;;30.40;99.90;;;;;;5041409;28;20546;-51
2023/09/09 08:38:56;;;;;;;12.83;9.20;;;30.70;99.90;;;;;;5034689;28;20183;-51
2023/09/09 08:41:32;;;;;;;9.30;8.30;;;30.90;99.90;;;;;;5032081;28;20188;-51
2023/09/09 08:44:03;;;;;;;13.00;9.10;;;30.90;99.90;;;;;;5027780;28;20503;-51
2023/09/09 08:46:29;;;;;;;13.50;9.80;;;30.70;99.90;;;;;;5031610;28;20442;-51
2023/09/09 08:48:57;;;;;;;14.83;9.50;;;30.60;99.90;;;;;;5031790;28;20483;-49
2023/09/09 08:51:31;;;;;;;14.63;8.60;;;30.40;99.90;;;;;;5026309;28;20288;-49
2023/09/09 08:53:57;;;;;;;13.53;8.90;;;30.40;99.90;;;;;;5026195;28;21038;-49
2023/09/09 08:56:24;;;;;;;14.80;8.27;;;30.70;99.90;;;;;;5024904;28;20458;-49
2023/09/09 08:58:49;;;;;;;19.13;16.80;;;31.10;99.90;;;;;;5026127;28;20452;-49
2023/09/09 09:01:16;;;;;;;24.47;21.83;;;31.20;99.90;;;;;;5027153;28;20422;-49
2023/09/09 09:03:44;;;;;;;13.37;12.07;;;31.00;99.90;;;;;;5028256;28;20546;-50
2023/09/09 09:06:10;;;;;;;11.43;9.00;;;30.80;99.90;;;;;;5027559;28;20469;-49
2023/09/09 09:08:36;;;;;;;9.50;8.50;;;30.60;99.90;;;;;;5027144;28;20505;-49
2023/09/09 09:11:03;;;;;;;11.53;8.47;;;30.70;99.90;;;;;;5029820;28;20317;-50
2023/09/09 09:13:33;;;;;;;12.93;8.60;;;30.50;99.90;;;;;;5032248;28;20443;-49
2023/09/09 09:16:00;;;;;;;9.10;8.30;;;30.20;99.90;;;;;;5031475;28;20526;-49
2023/09/09 09:18:26;;;;;;;13.50;8.33;;;30.40;99.90;;;;;;5028258;28;21006;-49
2023/09/09 09:20:52;;;;;;;13.90;8.80;;;30.50;99.90;;;;;;5023557;28;20506;-49
2023/09/09 09:23:18;;;;;;;9.90;8.80;;;30.20;99.90;;;;;;5025199;28;20199;-49
2023/09/09 09:25:47;;;;;;;9.93;8.93;;;29.70;99.90;;;;;;5026494;28;20865;-49
2023/09/09 09:28:14;;;;;;;11.60;9.77;;;29.40;99.90;;;;;;5028196;28;20203;-49
2023/09/09 09:30:40;;;;;;;12.70;9.60;;;28.80;99.90;;;;;;5026284;28;20442;-49
2023/09/09 09:33:05;;;;;;;12.20;9.53;;;28.50;99.90;;;;;;5025206;28;20426;-49
2023/09/09 09:35:32;;;;;;;20.93;8.70;;;28.20;99.90;;;;;;5025957;28;20187;-49
2023/09/09 09:38:03;;;;;;;10.67;9.57;;;28.10;99.90;;;;;;5025748;28;20188;-49
2023/09/09 09:40:30;;;;;;;10.50;9.23;;;28.00;99.90;;;;;;5026174;28;20821;-49
2023/09/09 09:42:56;;;;;;;14.67;8.80;;;27.90;99.90;;;;;;5028452;28;20488;-48
2023/09/09 09:45:29;;;;;;;10.40;9.30;;;28.00;99.90;;;;;;5030476;28;20802;-48
2023/09/09 09:47:57;;;;;;;9.07;8.17;;;27.90;99.90;;;;;;5028845;28;20482;-50
2023/09/09 09:50:30;;;;;;;9.57;8.60;;;27.90;99.90;;;;;;5028769;28;20660;-47
2023/09/09 09:52:59;;;;;;;12.20;8.40;;;27.90;99.90;;;;;;5035339;28;20442;-47
2023/09/09 09:55:26;;;;;;;10.80;8.73;;;27.80;99.90;;;;;;5035779;28;20442;-49
2023/09/09 09:57:55;;;;;;;9.50;8.50;;;27.70;99.90;;;;;;5033191;28;20437;-49
2023/09/09 10:00:21;;;;;;;12.70;9.03;;;27.80;99.90;;;;;;5034565;28;20851;-47
2023/09/09 10:02:51;;;;;;;9.27;8.20;;;27.80;99.90;;;;;;5038104;28;20513;-47
2023/09/09 10:05:20;;;;;;;11.93;8.80;;;27.90;99.90;;;;;;5031588;28;20433;-47
2023/09/09 10:07:51;;;;;;;12.93;8.97;;;28.00;99.90;;;;;;5031409;28;20496;-47
2023/09/09 10:10:19;;;;;;;77.53;58.63;;;28.10;99.90;;;;;;5029429;28;20959;-49
2023/09/09 10:12:45;;;;;;;14.83;10.53;;;28.30;99.90;;;;;;5030296;28;20500;-48
2023/09/09 10:15:12;;;;;;;14.20;10.43;;;28.50;99.90;;;;;;5031168;28;20442;-48
2023/09/09 10:17:39;;;;;;;9.80;8.50;;;28.60;99.90;;;;;;5038602;28;20258;-48
2023/09/09 10:20:06;;;;;;;11.57;8.80;;;28.80;99.90;;;;;;5032497;28;20446;-49
2023/09/09 10:22:33;;;;;;;14.53;10.40;;;28.90;99.90;;;;;;5031631;28;20489;-47
2023/09/09 10:25:03;;;;;;;12.83;9.10;;;29.30;99.90;;;;;;5030013;28;20946;-47
2023/09/09 10:27:29;;;;;;;10.47;8.83;;;29.60;99.90;;;;;;5030922;28;20470;-47
2023/09/09 10:29:57;;;;;;;15.47;9.13;;;29.80;99.90;;;;;;5030091;28;20532;-48
2023/09/09 10:32:25;;;;;;;12.30;9.13;;;30.00;99.90;;;;;;5030210;28;20838;-47
2023/09/09 10:34:53;;;;;;;10.07;9.03;;;30.20;99.90;;;;;;5033701;28;20434;-48
2023/09/09 10:37:19;;;;;;;15.37;8.60;;;30.40;99.90;;;;;;5033097;28;20430;-48
2023/09/09 10:39:47;;;;;;;10.40;9.40;;;30.70;99.90;;;;;;5033920;28;20442;-47
2023/09/09 10:42:15;;;;;;;10.83;8.40;;;31.40;99.90;;;;;;5030164;28;20438;-48
2023/09/09 10:44:40;;;;;;;9.03;7.90;;;32.30;99.90;;;;;;5030331;28;20513;-48
2023/09/09 10:47:08;;;;;;;13.60;8.13;;;33.00;99.90;;;;;;5031802;28;20448;-48
2023/09/09 10:49:34;;;;;;;8.33;7.47;;;33.60;99.90;;;;;;5029524;28;20206;-48
2023/09/09 10:51:59;;;;;;;11.50;7.37;;;34.10;99.90;;;;;;5033456;28;20442;-49
2023/09/09 10:54:26;;;;;;;15.13;7.97;;;34.50;99.90;;;;;;5034314;28;20273;-49
2023/09/09 10:57:02;;;;;;;9.57;8.07;;;34.80;99.90;;;;;;5032587;28;20194;-51
2023/09/09 10:59:30;;;;;;;11.17;7.43;;;35.30;99.90;;;;;;5035447;28;20575;-49
2023/09/09 11:02:24;;;;;;;8.63;7.13;;;35.50;99.90;;;;;;5033627;28;20446;-50
2023/09/09 11:05:10;;;;;;;9.17;7.60;;;35.90;99.90;;;;;;5031544;28;20442;-49
2023/09/09 11:07:40;;;;;;;11.40;7.50;;;36.30;99.90;;;;;;5034616;28;20485;-50
2023/09/09 11:10:07;;;;;;;9.93;8.10;;;36.50;99.90;;;;;;5031704;28;20759;-50
2023/09/09 11:12:33;;;;;;;11.03;7.87;;;36.40;99.90;;;;;;5032474;28;20433;-50
2023/09/09 11:15:09;;;;;;;8.10;7.40;;;36.60;99.90;;;;;;5035588;28;20434;-50
2023/09/09 11:17:40;;;;;;;9.73;6.33;;;36.70;99.90;;;;;;5035889;28;20188;-50
2023/09/09 11:20:11;;;;;;;9.33;7.13;;;37.20;99.90;;;;;;5033382;28;20445;-50
2023/09/09 11:22:38;;;;;;;12.50;7.67;;;37.40;99.90;;;;;;5033619;28;20559;-50
2023/09/09 11:25:05;;;;;;;8.40;7.57;;;37.50;99.90;;;;;;5034624;28;20444;-50
2023/09/09 11:27:33;;;;;;;12.83;6.50;;;37.60;99.90;;;;;;5034558;28;20564;-49
2023/09/09 11:29:58;;;;;;;6.87;5.47;;;37.90;99.90;;;;;;5031433;28;20473;-49
2023/09/09 11:32:26;;;;;;;12.17;6.60;;;37.90;99.90;;;;;;5032838;28;20523;-49
2023/09/09 11:34:53;;;;;;;7.57;6.80;;;38.00;99.90;;;;;;5032955;28;20194;-49
2023/09/09 11:37:19;;;;;;;6.20;5.27;;;37.80;99.90;;;;;;5031869;28;20824;-49
2023/09/09 11:39:44;;;;;;;8.43;5.77;;;37.60;99.90;;;;;;5033766;28;20442;-49
2023/09/09 11:42:10;;;;;;;11.43;6.40;;;37.90;99.90;;;;;;5033449;28;20894;-50
2023/09/09 11:44:43;;;;;;;8.47;6.77;;;38.10;99.90;;;;;;5032813;28;20184;-50
2023/09/09 11:47:10;;;;;;;6.47;5.83;;;38.10;99.90;;;;;;5033352;28;20184;-50
2023/09/09 11:49:38;;;;;;;6.33;5.73;;;38.00;99.90;;;;;;5033070;28;20607;-50
2023/09/09 11:52:04;;;;;;;7.63;5.60;;;38.10;99.90;;;;;;5033426;28;20453;-50
2023/09/09 11:54:30;;;;;;;5.47;4.90;;;37.90;99.90;;;;;;5033075;28;20852;-50
2023/09/09 11:57:09;;;;;;;5.90;5.30;;;37.70;99.90;;;;;;5033623;28;20446;-50
2023/09/09 11:59:49;;;;;;;5.90;5.30;;;38.00;99.90;;;;;;5033791;28;20179;-50
2023/09/09 12:02:18;;;;;;;5.97;4.70;;;38.20;99.90;;;;;;5033178;28;20445;-50
2023/09/09 12:04:57;;;;;;;6.43;5.33;;;38.40;99.90;;;;;;5032944;28;20453;-50
2023/09/09 12:07:35;;;;;;;5.57;5.03;;;38.50;99.90;;;;;;5032852;28;20817;-50
2023/09/09 12:10:04;;;;;;;6.77;5.23;;;38.70;99.90;;;;;;5032988;28;20516;-51
2023/09/09 12:12:30;;;;;;;8.17;6.23;;;38.90;99.90;;;;;;5031571;28;20835;-52
2023/09/09 12:14:57;;;;;;;8.30;5.23;;;38.60;99.90;;;;;;5032688;28;20445;-51
2023/09/09 12:17:23;;;;;;;5.90;5.30;;;38.30;99.90;;;;;;5035244;28;20191;-50
2023/09/09 12:20:01;;;;;;;7.57;5.00;;;38.20;99.90;;;;;;5032696;28;20434;-51
2023/09/09 12:22:35;;;;;;;5.60;5.10;;;38.30;99.90;;;;;;5032184;28;20231;-48
2023/09/09 12:25:03;;;;;;;6.60;5.10;;;38.50;99.90;;;;;;5030708;28;20453;-50
2023/09/09 12:27:45;;;;;;;7.47;5.40;;;38.30;99.90;;;;;;5033384;28;20458;-50
2023/09/09 12:30:30;;;;;;;6.40;5.40;;;37.80;99.90;;;;;;5031419;28;20445;-50
2023/09/09 12:32:56;;;;;;;9.70;5.40;;;37.70;99.90;;;;;;5031442;28;20517;-50